createdAt,value
2022-09-24T00:02:19.478Z,14.00
2022-09-24T00:04:54.451Z,14.00
2022-09-24T00:07:22.614Z,14.00
2022-09-24T00:09:57.442Z,14.00
2022-09-24T00:12:29.752Z,14.00
2022-09-24T00:15:04.438Z,14.00
2022-09-24T00:17:34.796Z,14.00
2022-09-24T00:20:09.427Z,14.00
2022-09-24T00:22:37.471Z,14.00
2022-09-24T00:25:30.435Z,14.00
2022-09-24T00:28:06.638Z,13.90
2022-09-24T00:30:41.465Z,14.00
2022-09-24T00:33:09.513Z,13.90
2022-09-24T00:35:46.462Z,13.90
2022-09-24T00:38:19.005Z,13.80
2022-09-24T00:40:53.498Z,13.80
2022-09-24T00:43:34.061Z,13.70
2022-09-24T00:46:20.612Z,13.70
2022-09-24T00:48:51.501Z,13.70
2022-09-24T00:51:32.456Z,13.70
2022-09-24T00:54:05.223Z,13.70
2022-09-24T00:56:43.635Z,13.60
2022-09-24T00:59:16.978Z,13.60
2022-09-24T01:01:52.523Z,13.60
2022-09-24T01:04:21.643Z,13.60
2022-09-24T01:06:56.494Z,13.60
2022-09-24T01:09:27.243Z,13.60
2022-09-24T01:12:10.503Z,13.60
2022-09-24T01:14:53.841Z,13.60
2022-09-24T01:17:36.489Z,13.50
2022-09-24T01:20:21.344Z,13.50
2022-09-24T01:23:10.458Z,13.50
2022-09-24T01:25:46.329Z,13.50
2022-09-24T01:28:41.495Z,13.50
2022-09-24T01:31:17.643Z,13.50
2022-09-24T01:33:59.493Z,13.50
2022-09-24T01:36:29.975Z,13.50
2022-09-24T01:39:06.499Z,13.50
2022-09-24T01:41:35.345Z,13.40
2022-09-24T01:44:13.495Z,13.40
2022-09-24T01:46:43.972Z,13.50
2022-09-24T01:49:19.522Z,13.50
2022-09-24T01:51:51.853Z,13.50
2022-09-24T01:54:30.533Z,13.50
2022-09-24T01:57:12.370Z,13.50
2022-09-24T01:59:51.546Z,13.50
2022-09-24T02:02:27.692Z,13.50
2022-09-24T02:05:09.542Z,13.50
2022-09-24T02:07:43.673Z,13.50
2022-09-24T02:10:22.534Z,13.50
2022-09-24T02:12:56.601Z,13.50
2022-09-24T02:15:35.545Z,13.50
2022-09-24T02:18:09.540Z,13.50
2022-09-24T02:20:48.505Z,13.50
2022-09-24T02:23:21.329Z,13.50
2022-09-24T02:25:59.572Z,13.50
2022-09-24T02:28:34.845Z,13.50
2022-09-24T02:31:14.754Z,13.50
2022-09-24T02:34:05.191Z,13.50
2022-09-24T02:36:39.564Z,13.50
2022-09-24T02:39:07.595Z,13.50
2022-09-24T02:41:42.648Z,13.40
2022-09-24T02:44:10.774Z,13.40
2022-09-24T02:46:45.687Z,13.40
2022-09-24T02:49:15.959Z,13.50
2022-09-24T02:51:51.578Z,13.50
2022-09-24T02:54:19.659Z,13.40
2022-09-24T02:56:54.598Z,13.50
2022-09-24T02:59:22.688Z,13.40
2022-09-24T03:01:57.774Z,13.40
2022-09-24T03:04:29.062Z,13.40
2022-09-24T03:07:03.596Z,13.40
2022-09-24T03:09:31.677Z,13.30
2022-09-24T03:12:07.612Z,13.30
2022-09-24T03:14:35.820Z,13.30
2022-09-24T03:17:10.641Z,13.30
2022-09-24T03:19:40.111Z,13.20
2022-09-24T03:22:14.627Z,13.20
2022-09-24T03:24:42.773Z,13.20
2022-09-24T03:27:20.620Z,13.20
2022-09-24T03:30:12.647Z,13.20
2022-09-24T03:32:40.749Z,13.20
2022-09-24T03:35:18.640Z,13.20
2022-09-24T03:37:49.187Z,13.20
2022-09-24T03:40:24.646Z,13.20
2022-09-24T03:42:52.731Z,13.20
2022-09-24T03:45:27.616Z,13.20
2022-09-24T03:47:55.845Z,13.10
2022-09-24T03:50:32.666Z,13.20
2022-09-24T03:53:00.963Z,13.20
2022-09-24T03:55:35.656Z,13.10
2022-09-24T03:58:03.743Z,13.10
2022-09-24T04:00:41.095Z,13.10
2022-09-24T04:03:09.986Z,13.10
2022-09-24T04:05:46.664Z,13.10
2022-09-24T04:08:14.794Z,13.00
2022-09-24T04:10:49.646Z,13.00
2022-09-24T04:13:18.580Z,13.00
2022-09-24T04:15:54.663Z,12.90
2022-09-24T04:18:23.029Z,12.80
2022-09-24T04:20:59.688Z,12.90
2022-09-24T04:23:31.258Z,12.90
2022-09-24T04:26:08.661Z,12.80
2022-09-24T04:28:43.710Z,12.80
2022-09-24T04:31:18.686Z,12.80
2022-09-24T04:33:46.721Z,12.90
2022-09-24T04:36:22.688Z,12.90
2022-09-24T04:38:51.021Z,12.90
2022-09-24T04:41:25.689Z,12.90
2022-09-24T04:43:53.749Z,12.90
2022-09-24T04:46:28.729Z,12.90
2022-09-24T04:48:57.591Z,12.80
2022-09-24T04:51:36.689Z,12.90
2022-09-24T04:54:05.372Z,12.90
2022-09-24T04:56:39.692Z,12.90
2022-09-24T04:59:07.834Z,12.80
2022-09-24T05:01:42.849Z,12.80
2022-09-24T05:04:11.000Z,12.80
2022-09-24T05:06:46.726Z,12.70
2022-09-24T05:09:14.957Z,12.70
2022-09-24T05:11:49.702Z,12.70
2022-09-24T05:14:18.259Z,12.70
2022-09-24T05:16:52.698Z,12.60
2022-09-24T05:19:21.520Z,12.60
2022-09-24T05:22:00.769Z,12.60
2022-09-24T05:24:28.899Z,12.50
2022-09-24T05:27:18.714Z,12.50
2022-09-24T05:29:53.964Z,12.50
2022-09-24T05:32:30.793Z,12.50
2022-09-24T05:34:59.433Z,12.50
2022-09-24T05:37:35.718Z,12.50
2022-09-24T05:40:24.591Z,12.50
2022-09-24T05:42:59.789Z,12.50
2022-09-24T05:45:27.952Z,12.50
2022-09-24T05:48:02.751Z,12.50
2022-09-24T05:50:31.285Z,12.60
2022-09-24T05:53:07.772Z,12.60
2022-09-24T05:55:36.734Z,12.60
2022-09-24T05:58:13.772Z,12.70
2022-09-24T06:00:41.894Z,12.70
2022-09-24T06:03:20.802Z,12.70
2022-09-24T06:05:50.154Z,12.70
2022-09-24T06:08:28.887Z,12.70
2022-09-24T06:11:00.535Z,12.80
2022-09-24T06:13:34.764Z,12.80
2022-09-24T06:16:04.121Z,12.80
2022-09-24T06:18:38.804Z,12.80
2022-09-24T06:21:08.930Z,12.80
2022-09-24T06:23:45.745Z,12.80
2022-09-24T06:26:15.256Z,12.80
2022-09-24T06:28:57.595Z,12.90
2022-09-24T06:31:35.297Z,12.90
2022-09-24T06:34:10.776Z,12.90
2022-09-24T06:36:40.290Z,12.80
2022-09-24T06:39:16.779Z,12.80
2022-09-24T06:41:44.810Z,12.80
2022-09-24T06:44:19.805Z,12.80
2022-09-24T06:46:48.185Z,12.80
2022-09-24T06:49:22.790Z,12.80
2022-09-24T06:51:51.070Z,12.80
2022-09-24T06:54:26.798Z,12.80
2022-09-24T06:56:54.818Z,12.90
2022-09-24T06:59:29.811Z,12.90
2022-09-24T07:01:59.398Z,12.90
2022-09-24T07:04:33.857Z,12.90
2022-09-24T07:07:25.800Z,12.90
2022-09-24T07:09:55.388Z,12.90
2022-09-24T07:12:29.908Z,12.90
2022-09-24T07:14:58.427Z,12.90
2022-09-24T07:17:34.159Z,12.90
2022-09-24T07:20:02.896Z,12.90
2022-09-24T07:22:37.851Z,12.90
2022-09-24T07:25:09.465Z,12.90
2022-09-24T07:27:56.814Z,13.00
2022-09-24T07:30:24.849Z,13.00
2022-09-24T07:33:02.826Z,13.00
2022-09-24T07:35:31.343Z,13.00
2022-09-24T07:38:07.849Z,13.00
2022-09-24T07:40:37.292Z,13.00
2022-09-24T07:43:14.274Z,13.00
2022-09-24T07:45:43.540Z,13.10
2022-09-24T07:48:19.831Z,13.10
2022-09-24T07:50:47.927Z,13.10
2022-09-24T07:53:23.871Z,13.10
2022-09-24T07:55:53.585Z,13.10
2022-09-24T07:58:28.872Z,13.10
2022-09-24T08:00:59.783Z,13.20
2022-09-24T08:03:34.938Z,13.20
2022-09-24T08:06:05.133Z,13.30
2022-09-24T08:08:39.885Z,13.30
2022-09-24T08:11:12.235Z,13.30
2022-09-24T08:13:52.871Z,13.30
2022-09-24T08:16:22.380Z,13.40
2022-09-24T08:18:56.873Z,13.30
2022-09-24T08:21:24.980Z,13.40
2022-09-24T08:23:59.877Z,13.40
2022-09-24T08:26:29.263Z,13.40
2022-09-24T08:29:10.887Z,13.50
2022-09-24T08:31:42.147Z,13.50
2022-09-24T08:34:16.909Z,13.50
2022-09-24T08:36:44.951Z,13.50
2022-09-24T08:39:19.879Z,13.60
2022-09-24T08:41:57.039Z,13.70
2022-09-24T08:44:53.891Z,13.70
2022-09-24T08:47:33.382Z,13.70
2022-09-24T08:50:16.916Z,13.70
2022-09-24T08:53:06.574Z,13.70
2022-09-24T08:55:45.955Z,13.70
2022-09-24T08:58:33.128Z,13.70
2022-09-24T09:01:14.977Z,13.70
2022-09-24T09:03:47.326Z,13.70
2022-09-24T09:06:44.911Z,13.70
2022-09-24T09:09:15.303Z,13.80
2022-09-24T09:11:53.925Z,13.80
2022-09-24T09:14:31.314Z,13.80
2022-09-24T09:17:09.932Z,13.80
2022-09-24T09:19:40.459Z,13.80
2022-09-24T09:22:20.929Z,13.90
2022-09-24T09:24:51.570Z,13.90
2022-09-24T09:27:35.941Z,14.00
2022-09-24T09:30:18.254Z,14.10
2022-09-24T09:33:16.973Z,14.20
2022-09-24T09:35:52.702Z,14.20
2022-09-24T09:38:32.951Z,14.20
2022-09-24T09:41:07.777Z,14.30
2022-09-24T09:43:42.964Z,14.40
2022-09-24T09:46:17.025Z,14.30
2022-09-24T09:48:53.950Z,14.40
2022-09-24T09:51:26.108Z,14.40
2022-09-24T09:54:05.035Z,14.40
2022-09-24T09:56:36.808Z,14.40
2022-09-24T09:59:15.964Z,14.40
2022-09-24T10:01:47.782Z,14.50
2022-09-24T10:04:43.979Z,14.50
2022-09-24T10:07:14.839Z,14.40
2022-09-24T10:09:50.984Z,14.40
2022-09-24T10:12:22.126Z,14.40
2022-09-24T10:15:08.992Z,14.50
2022-09-24T10:17:41.615Z,14.50
2022-09-24T10:20:23.013Z,14.70
2022-09-24T10:22:53.666Z,14.70
2022-09-24T10:25:32.998Z,14.70
2022-09-24T10:28:26.882Z,14.80
2022-09-24T10:31:14.058Z,14.80
2022-09-24T10:33:47.406Z,14.80
2022-09-24T10:36:25.011Z,14.80
2022-09-24T10:39:03.866Z,14.80
2022-09-24T10:41:40.026Z,14.80
2022-09-24T10:44:12.411Z,14.90
2022-09-24T10:47:06.052Z,14.90
2022-09-24T10:49:56.444Z,14.80
2022-09-24T10:52:44.078Z,14.90
2022-09-24T10:55:30.678Z,14.90
2022-09-24T10:58:11.051Z,15.00
2022-09-24T11:00:41.480Z,15.10
2022-09-24T11:03:55.459Z,15.00
2022-09-24T11:06:47.102Z,15.10
2022-09-24T11:09:25.773Z,15.10
2022-09-24T11:12:10.044Z,15.20
2022-09-24T11:15:04.042Z,15.20
2022-09-24T11:17:45.095Z,15.20
2022-09-24T11:20:30.293Z,15.20
2022-09-24T11:23:33.094Z,15.30
2022-09-24T11:26:09.839Z,15.20
2022-09-24T11:29:12.033Z,15.30
2022-09-24T11:31:47.247Z,15.30
2022-09-24T11:34:54.080Z,15.30
2022-09-24T11:37:39.151Z,15.30
2022-09-24T11:40:44.216Z,15.40
2022-09-24T11:43:33.921Z,15.40
2022-09-24T11:46:24.125Z,15.50
2022-09-24T11:49:13.734Z,15.30
2022-09-24T11:52:00.087Z,15.20
2022-09-24T11:54:33.637Z,15.00
2022-09-24T11:57:17.074Z,15.00
2022-09-24T12:00:00.234Z,15.00
2022-09-24T12:02:35.298Z,14.90
2022-09-24T12:05:15.080Z,14.90
2022-09-24T12:07:50.145Z,14.90
2022-09-24T12:10:36.096Z,14.90
2022-09-24T12:13:13.969Z,14.80
2022-09-24T12:15:56.195Z,14.70
2022-09-24T12:18:34.125Z,14.80
2022-09-24T12:21:07.195Z,14.80
2022-09-24T12:23:51.120Z,14.70
2022-09-24T12:26:22.049Z,14.70
2022-09-24T12:29:29.132Z,14.70
2022-09-24T12:32:22.801Z,14.70
2022-09-24T12:35:04.139Z,14.70
2022-09-24T12:37:39.106Z,14.70
2022-09-24T12:40:29.159Z,14.80
2022-09-24T12:43:01.029Z,14.80
2022-09-24T12:45:37.143Z,14.80
2022-09-24T12:48:05.797Z,14.80
2022-09-24T12:50:43.153Z,14.80
2022-09-24T12:53:24.893Z,14.80
2022-09-24T12:56:06.141Z,14.80
2022-09-24T12:58:40.154Z,14.70
2022-09-24T13:01:21.286Z,14.60
2022-09-24T13:04:03.591Z,14.50
2022-09-24T13:06:41.128Z,14.50
2022-09-24T13:09:36.594Z,14.50
2022-09-24T13:12:26.162Z,14.40
2022-09-24T13:15:01.560Z,14.30
2022-09-24T13:17:39.175Z,14.30
2022-09-24T13:20:09.847Z,14.30
2022-09-24T13:22:45.153Z,14.30
2022-09-24T13:25:24.777Z,14.40
2022-09-24T13:28:10.180Z,14.30
2022-09-24T13:30:47.377Z,14.30
2022-09-24T13:33:34.192Z,14.30
2022-09-24T13:36:07.387Z,14.30
2022-09-24T13:38:45.205Z,14.20
2022-09-24T13:41:24.801Z,14.30
2022-09-24T13:44:04.167Z,14.10
2022-09-24T13:46:36.006Z,14.10
2022-09-24T13:49:19.201Z,14.10
2022-09-24T13:51:54.411Z,14.10
2022-09-24T13:54:34.201Z,14.20
2022-09-24T13:57:12.517Z,14.20
2022-09-24T13:59:47.222Z,14.30
2022-09-24T14:02:26.549Z,14.20
2022-09-24T14:05:04.220Z,14.20
2022-09-24T14:07:32.257Z,14.20
2022-09-24T14:10:14.217Z,14.10
2022-09-24T14:12:42.781Z,14.00
2022-09-24T14:15:23.223Z,14.00
2022-09-24T14:17:57.754Z,14.00
2022-09-24T14:20:36.219Z,14.00
2022-09-24T14:23:06.394Z,13.90
2022-09-24T14:25:43.229Z,13.90
2022-09-24T14:28:34.237Z,14.00
2022-09-24T14:31:10.291Z,14.00
2022-09-24T14:33:39.474Z,14.00
2022-09-24T14:36:19.219Z,14.00
2022-09-24T14:38:53.934Z,14.00
2022-09-24T14:41:31.296Z,14.00
2022-09-24T14:44:02.426Z,14.00
2022-09-24T14:46:39.312Z,14.00
2022-09-24T14:49:17.971Z,14.00
2022-09-24T14:52:01.420Z,14.00
2022-09-24T14:54:36.481Z,13.90
2022-09-24T14:57:19.279Z,13.90
2022-09-24T14:59:48.556Z,13.90
2022-09-24T15:02:27.270Z,13.80
2022-09-24T15:05:04.819Z,13.90
2022-09-24T15:07:43.241Z,13.90
2022-09-24T15:10:22.070Z,13.90
2022-09-24T15:12:59.242Z,13.80
2022-09-24T15:15:30.648Z,13.80
2022-09-24T15:18:05.266Z,13.80
2022-09-24T15:20:36.902Z,13.70
2022-09-24T15:23:13.242Z,13.60
2022-09-24T15:25:43.718Z,13.70
2022-09-24T15:28:21.272Z,13.60
2022-09-24T15:30:56.845Z,13.60
2022-09-24T15:33:31.308Z,13.60
2022-09-24T15:35:59.922Z,13.60
2022-09-24T15:38:36.310Z,13.70
2022-09-24T15:41:04.528Z,13.70
2022-09-24T15:43:39.254Z,13.70
2022-09-24T15:46:07.649Z,13.70
2022-09-24T15:48:42.280Z,13.80
2022-09-24T15:51:15.393Z,13.80
2022-09-24T15:53:51.304Z,13.80
2022-09-24T15:56:19.650Z,13.80
2022-09-24T15:58:54.313Z,13.80
2022-09-24T16:01:22.816Z,13.90
2022-09-24T16:03:57.326Z,13.90
2022-09-24T16:06:25.494Z,13.90
2022-09-24T16:09:01.285Z,13.80
2022-09-24T16:11:29.378Z,13.80
2022-09-24T16:14:04.313Z,13.90
2022-09-24T16:16:32.405Z,13.90
2022-09-24T16:19:07.312Z,13.90
2022-09-24T16:21:35.504Z,14.00
2022-09-24T16:24:12.343Z,14.00
2022-09-24T16:26:40.427Z,14.00
2022-09-24T16:29:24.304Z,14.00
2022-09-24T16:31:59.193Z,13.90
2022-09-24T16:34:34.307Z,14.00
2022-09-24T16:37:02.377Z,14.00
2022-09-24T16:39:39.335Z,14.00
2022-09-24T16:42:08.214Z,13.90
2022-09-24T16:44:43.355Z,13.80
2022-09-24T16:47:11.398Z,13.80
2022-09-24T16:49:46.373Z,13.80
2022-09-24T16:52:14.568Z,13.70
2022-09-24T16:54:50.320Z,13.70
2022-09-24T16:57:18.340Z,13.60
2022-09-24T16:59:53.359Z,13.60
2022-09-24T17:02:21.527Z,13.50
2022-09-24T17:04:59.436Z,13.50
2022-09-24T17:07:31.478Z,13.50
2022-09-24T17:10:22.374Z,13.40
2022-09-24T17:12:51.595Z,13.30
2022-09-24T17:15:27.407Z,13.30
2022-09-24T17:17:55.631Z,13.30
2022-09-24T17:20:30.379Z,13.20
2022-09-24T17:22:58.498Z,13.10
2022-09-24T17:25:34.394Z,13.10
2022-09-24T17:28:11.225Z,13.10
2022-09-24T17:30:52.496Z,13.10
2022-09-24T17:33:42.484Z,13.10
2022-09-24T17:36:17.451Z,13.10
2022-09-24T17:38:52.410Z,13.00
2022-09-24T17:41:23.014Z,13.00
2022-09-24T17:44:00.534Z,13.00
2022-09-24T17:46:30.179Z,13.00
2022-09-24T17:49:06.423Z,12.90
2022-09-24T17:51:36.557Z,12.90
2022-09-24T17:54:13.486Z,12.90
2022-09-24T17:56:43.122Z,12.90
2022-09-24T17:59:22.917Z,12.90
2022-09-24T18:01:53.997Z,12.80
2022-09-24T18:04:32.405Z,12.80
2022-09-24T18:07:00.522Z,12.80
2022-09-24T18:09:35.422Z,12.80
2022-09-24T18:12:05.352Z,12.80
2022-09-24T18:14:41.589Z,12.80
2022-09-24T18:17:09.645Z,12.80
2022-09-24T18:19:44.410Z,12.80
2022-09-24T18:22:13.269Z,12.80
2022-09-24T18:24:48.454Z,12.70
2022-09-24T18:27:32.680Z,12.80
2022-09-24T18:30:18.421Z,12.80
2022-09-24T18:32:46.953Z,12.70
2022-09-24T18:35:21.468Z,12.70
2022-09-24T18:37:49.513Z,12.70
2022-09-24T18:40:24.472Z,12.70
2022-09-24T18:42:58.119Z,12.70
2022-09-24T18:45:32.576Z,12.70
2022-09-24T18:48:00.903Z,12.70
2022-09-24T18:50:35.484Z,12.70
2022-09-24T18:53:04.818Z,12.70
2022-09-24T18:55:39.479Z,12.70
2022-09-24T18:58:11.042Z,12.70
2022-09-24T19:00:57.472Z,12.70
2022-09-24T19:03:26.753Z,12.70
2022-09-24T19:06:03.494Z,12.70
2022-09-24T19:08:32.142Z,12.70
2022-09-24T19:11:11.536Z,12.70
2022-09-24T19:13:42.862Z,12.70
2022-09-24T19:16:19.562Z,12.60
2022-09-24T19:18:47.728Z,12.70
2022-09-24T19:21:22.676Z,12.70
2022-09-24T19:23:53.169Z,12.70
2022-09-24T19:26:29.527Z,12.70
2022-09-24T19:29:05.732Z,12.70
2022-09-24T19:31:42.696Z,12.70
2022-09-24T19:34:14.206Z,12.70
2022-09-24T19:36:49.485Z,12.70
2022-09-24T19:39:18.594Z,12.70
2022-09-24T19:41:53.521Z,12.70
2022-09-24T19:44:23.333Z,12.70
2022-09-24T19:46:57.493Z,12.70
2022-09-24T19:49:25.584Z,12.70
2022-09-24T19:52:00.558Z,12.70
2022-09-24T19:54:28.994Z,12.70
2022-09-24T19:57:03.496Z,12.70
2022-09-24T19:59:33.108Z,12.70
2022-09-24T20:02:08.979Z,12.70
2022-09-24T20:04:37.010Z,12.70
2022-09-24T20:07:11.548Z,12.70
2022-09-24T20:09:40.117Z,12.70
2022-09-24T20:12:14.553Z,12.60
2022-09-24T20:14:44.040Z,12.60
2022-09-24T20:17:18.588Z,12.60
2022-09-24T20:19:46.651Z,12.60
2022-09-24T20:22:21.577Z,12.60
2022-09-24T20:24:49.712Z,12.60
2022-09-24T20:27:41.612Z,12.60
2022-09-24T20:30:18.069Z,12.60
2022-09-24T20:32:52.561Z,12.60
2022-09-24T20:35:21.341Z,12.60
2022-09-24T20:37:56.565Z,12.60
2022-09-24T20:40:24.867Z,12.60
2022-09-24T20:42:59.675Z,12.50
2022-09-24T20:45:29.100Z,12.60
2022-09-24T20:48:03.540Z,12.60
2022-09-24T20:50:32.181Z,12.50
2022-09-24T20:53:06.573Z,12.50
2022-09-24T20:55:34.671Z,12.50
2022-09-24T20:58:09.575Z,12.60
2022-09-24T21:00:48.533Z,12.50
2022-09-24T21:03:42.591Z,12.60
2022-09-24T21:06:13.029Z,12.60
2022-09-24T21:08:50.585Z,12.60
2022-09-24T21:11:26.606Z,12.60
2022-09-24T21:13:57.230Z,12.50
2022-09-24T21:16:35.598Z,12.50
2022-09-24T21:19:08.021Z,12.50
2022-09-24T21:21:45.605Z,12.60
2022-09-24T21:24:15.168Z,12.50
2022-09-24T21:26:51.602Z,12.50
2022-09-24T21:29:27.790Z,12.50
2022-09-24T21:32:03.611Z,12.60
2022-09-24T21:34:31.740Z,12.60
2022-09-24T21:37:06.621Z,12.50
2022-09-24T21:39:34.842Z,12.60
2022-09-24T21:42:09.607Z,12.60
2022-09-24T21:44:37.753Z,12.60
2022-09-24T21:47:13.631Z,12.60
2022-09-24T21:49:41.747Z,12.60
2022-09-24T21:52:16.606Z,12.60
2022-09-24T21:54:44.763Z,12.60
2022-09-24T21:57:19.636Z,12.60
2022-09-24T22:00:09.931Z,12.60
2022-09-24T22:02:45.674Z,12.60
2022-09-24T22:05:16.514Z,12.60
2022-09-24T22:07:52.621Z,12.60
2022-09-24T22:10:20.675Z,12.60
2022-09-24T22:12:55.590Z,12.60
2022-09-24T22:15:23.631Z,12.60
2022-09-24T22:17:59.622Z,12.60
2022-09-24T22:20:28.199Z,12.60
2022-09-24T22:23:02.647Z,12.60
2022-09-24T22:25:31.509Z,12.60
2022-09-24T22:28:05.641Z,12.60
2022-09-24T22:30:43.280Z,12.60
2022-09-24T22:33:40.645Z,12.60
2022-09-24T22:36:08.329Z,12.50
2022-09-24T22:38:43.650Z,12.60
2022-09-24T22:41:12.328Z,12.50
2022-09-24T22:43:47.666Z,12.50
2022-09-24T22:46:16.466Z,12.60
2022-09-24T22:48:53.676Z,12.50
2022-09-24T22:51:21.910Z,12.50
2022-09-24T22:53:56.684Z,12.60
2022-09-24T22:56:26.382Z,12.50
2022-09-24T22:59:03.668Z,12.50
2022-09-24T23:01:33.531Z,12.50
2022-09-24T23:04:10.776Z,12.50
2022-09-24T23:06:38.865Z,12.50
2022-09-24T23:09:13.696Z,12.50
2022-09-24T23:11:41.910Z,12.50
2022-09-24T23:14:20.739Z,12.50
2022-09-24T23:16:49.358Z,12.50
2022-09-24T23:19:27.669Z,12.50
2022-09-24T23:21:56.015Z,12.50
2022-09-24T23:24:30.700Z,12.40
2022-09-24T23:26:58.697Z,12.40
2022-09-24T23:29:33.710Z,12.40
2022-09-24T23:32:08.953Z,12.40
2022-09-24T23:34:44.732Z,12.40
2022-09-24T23:37:13.173Z,12.40
2022-09-24T23:39:50.444Z,12.40
2022-09-24T23:42:18.674Z,12.40
2022-09-24T23:44:54.689Z,12.30
2022-09-24T23:47:22.786Z,12.30
2022-09-24T23:49:58.747Z,12.30
2022-09-24T23:52:26.832Z,12.20
2022-09-24T23:55:01.752Z,12.20
2022-09-24T23:57:29.780Z,12.20
